createdAt,value
2019-02-14T00:00:35.808Z,77.00
2019-02-14T00:03:04.659Z,77.00
2019-02-14T00:05:33.000Z,77.40
2019-02-14T00:08:01.473Z,77.60
2019-02-14T00:10:29.811Z,77.90
2019-02-14T00:12:58.294Z,78.00
2019-02-14T00:15:26.826Z,78.50
2019-02-14T00:17:55.213Z,78.50
2019-02-14T00:20:23.838Z,78.80
2019-02-14T00:22:52.421Z,79.40
2019-02-14T00:25:20.813Z,79.10
2019-02-14T00:27:49.195Z,78.60
2019-02-14T00:30:17.791Z,79.20
2019-02-14T00:32:46.291Z,79.30
2019-02-14T00:35:14.977Z,79.40
2019-02-14T00:37:43.307Z,79.20
2019-02-14T00:40:11.693Z,79.60
2019-02-14T00:42:40.034Z,79.70
2019-02-14T00:45:08.413Z,80.00
2019-02-14T00:47:36.976Z,80.20
2019-02-14T00:50:07.245Z,80.40
2019-02-14T00:52:36.077Z,80.30
2019-02-14T00:55:05.744Z,80.50
2019-02-14T00:57:34.071Z,80.70
2019-02-14T01:00:02.454Z,80.80
2019-02-14T01:02:30.958Z,80.90
2019-02-14T01:04:59.269Z,81.00
2019-02-14T01:07:27.822Z,81.00
2019-02-14T01:09:56.315Z,81.20
2019-02-14T01:12:24.648Z,81.10
2019-02-14T01:14:53.249Z,81.10
2019-02-14T01:17:22.104Z,81.10
2019-02-14T01:19:50.703Z,81.30
2019-02-14T01:22:19.032Z,81.30
2019-02-14T01:24:47.445Z,81.30
2019-02-14T01:27:15.928Z,81.60
2019-02-14T01:29:44.253Z,81.80
2019-02-14T01:32:13.102Z,82.20
2019-02-14T01:34:41.421Z,82.50
2019-02-14T01:37:09.911Z,82.20
2019-02-14T01:39:38.244Z,82.40
2019-02-14T01:42:06.726Z,82.50
2019-02-14T01:44:35.063Z,82.50
2019-02-14T01:47:03.453Z,82.40
2019-02-14T01:49:32.038Z,82.40
2019-02-14T01:52:00.347Z,82.20
2019-02-14T01:54:28.740Z,82.40
2019-02-14T01:56:57.061Z,82.30
2019-02-14T01:59:25.417Z,82.50
2019-02-14T02:01:53.734Z,82.50
2019-02-14T02:04:22.431Z,82.70
2019-02-14T02:06:50.732Z,83.10
2019-02-14T02:09:19.058Z,83.40
2019-02-14T02:11:47.826Z,83.40
2019-02-14T02:14:16.404Z,84.00
2019-02-14T02:16:44.896Z,84.00
2019-02-14T02:19:13.485Z,84.10
2019-02-14T02:21:41.822Z,84.30
2019-02-14T02:24:10.306Z,84.20
2019-02-14T02:26:38.640Z,83.80
2019-02-14T02:29:06.962Z,84.00
2019-02-14T02:31:35.373Z,83.90
2019-02-14T02:34:03.684Z,83.60
2019-02-14T02:36:32.329Z,83.60
2019-02-14T02:39:00.725Z,83.30
2019-02-14T02:41:29.212Z,83.40
2019-02-14T02:43:57.596Z,83.50
2019-02-14T02:46:26.008Z,83.50
2019-02-14T02:48:54.322Z,83.40
2019-02-14T02:51:22.721Z,83.30
2019-02-14T02:53:51.040Z,83.00
2019-02-14T02:56:19.445Z,82.80
2019-02-14T02:58:47.987Z,82.50
2019-02-14T03:01:16.598Z,82.40
2019-02-14T03:03:44.917Z,82.10
2019-02-14T03:06:13.249Z,81.90
2019-02-14T03:08:41.630Z,82.70
2019-02-14T03:11:09.949Z,81.90
2019-02-14T03:13:38.559Z,81.90
2019-02-14T03:16:06.878Z,81.70
2019-02-14T03:18:35.346Z,81.50
2019-02-14T03:21:03.919Z,81.30
2019-02-14T03:23:32.256Z,81.10
2019-02-14T03:26:00.581Z,81.20
2019-02-14T03:28:28.922Z,81.60
2019-02-14T03:30:57.670Z,81.90
2019-02-14T03:33:26.266Z,82.20
2019-02-14T03:35:54.567Z,82.70
2019-02-14T03:38:22.906Z,83.10
2019-02-14T03:40:51.212Z,82.20
2019-02-14T03:43:19.538Z,82.00
2019-02-14T03:45:48.120Z,81.90
2019-02-14T03:48:16.857Z,81.90
2019-02-14T03:50:45.180Z,81.90
2019-02-14T03:53:13.511Z,81.90
2019-02-14T03:55:41.828Z,82.50
2019-02-14T03:58:10.602Z,81.80
2019-02-14T04:00:39.269Z,81.80
2019-02-14T04:03:07.761Z,82.10
2019-02-14T04:05:36.189Z,82.70
2019-02-14T04:08:04.727Z,82.90
2019-02-14T04:10:33.060Z,83.40
2019-02-14T04:13:01.624Z,83.30
2019-02-14T04:15:29.952Z,83.40
2019-02-14T04:17:58.557Z,83.50
2019-02-14T04:20:27.003Z,83.20
2019-02-14T04:22:55.324Z,83.30
2019-02-14T04:25:23.704Z,83.90
2019-02-14T04:27:52.207Z,84.00
2019-02-14T04:30:20.516Z,84.50
2019-02-14T04:32:48.846Z,84.70
2019-02-14T04:35:17.158Z,85.20
2019-02-14T04:37:45.846Z,85.20
2019-02-14T04:40:14.522Z,85.00
2019-02-14T04:42:42.847Z,85.20
2019-02-14T04:45:12.308Z,85.00
2019-02-14T04:47:40.700Z,85.00
2019-02-14T04:50:10.653Z,84.80
2019-02-14T04:52:39.328Z,84.60
2019-02-14T04:55:11.264Z,84.80
2019-02-14T04:57:40.037Z,84.60
2019-02-14T05:00:11.536Z,84.60
2019-02-14T05:02:39.909Z,84.50
2019-02-14T05:05:08.989Z,84.10
2019-02-14T05:07:37.424Z,84.00
2019-02-14T05:10:09.867Z,83.60
2019-02-14T05:12:38.338Z,83.80
2019-02-14T05:15:08.218Z,83.80
2019-02-14T05:17:36.593Z,83.90
2019-02-14T05:20:08.095Z,84.10
2019-02-14T05:22:36.677Z,84.20
2019-02-14T05:25:07.159Z,84.00
2019-02-14T05:27:35.590Z,83.80
2019-02-14T05:30:09.064Z,83.40
2019-02-14T05:32:37.648Z,83.10
2019-02-14T05:35:06.924Z,83.00
2019-02-14T05:37:35.411Z,83.00
2019-02-14T05:40:05.435Z,83.40
2019-02-14T05:42:34.017Z,83.30
2019-02-14T05:45:02.805Z,83.70
2019-02-14T05:47:31.352Z,83.60
2019-02-14T05:49:59.873Z,83.80
2019-02-14T05:52:28.204Z,83.70
2019-02-14T05:54:56.508Z,83.30
2019-02-14T05:57:25.006Z,83.10
2019-02-14T05:59:53.320Z,83.40
2019-02-14T06:02:21.729Z,83.60
2019-02-14T06:04:50.041Z,83.80
2019-02-14T06:07:18.815Z,83.80
2019-02-14T06:09:47.217Z,84.00
2019-02-14T06:12:15.717Z,84.30
2019-02-14T06:14:44.109Z,84.50
2019-02-14T06:17:12.441Z,84.70
2019-02-14T06:19:41.019Z,84.60
2019-02-14T06:22:09.519Z,84.80
2019-02-14T06:24:37.925Z,85.00
2019-02-14T06:27:06.465Z,84.90
2019-02-14T06:29:34.941Z,85.10
2019-02-14T06:32:03.544Z,85.00
2019-02-14T06:34:31.847Z,85.00
2019-02-14T06:37:00.358Z,84.80
2019-02-14T06:39:28.661Z,84.60
2019-02-14T06:41:56.993Z,84.50
2019-02-14T06:44:25.309Z,84.50
2019-02-14T06:46:55.550Z,84.10
2019-02-14T06:49:23.867Z,84.00
2019-02-14T06:51:52.195Z,83.50
2019-02-14T06:54:20.787Z,83.80
2019-02-14T06:56:49.198Z,83.80
2019-02-14T06:59:17.501Z,84.00
2019-02-14T07:01:45.901Z,83.90
2019-02-14T07:04:14.291Z,83.80
2019-02-14T07:06:43.079Z,84.10
2019-02-14T07:09:11.391Z,84.30
2019-02-14T07:11:39.736Z,84.30
2019-02-14T07:14:08.118Z,84.40
2019-02-14T07:16:36.725Z,84.10
2019-02-14T07:19:05.210Z,84.10
2019-02-14T07:21:33.547Z,84.00
2019-02-14T07:24:02.110Z,84.10
2019-02-14T07:26:30.478Z,83.80
2019-02-14T07:28:59.155Z,84.30
2019-02-14T07:31:27.467Z,83.20
2019-02-14T07:33:56.053Z,82.60
2019-02-14T07:36:24.363Z,82.50
2019-02-14T07:38:52.986Z,82.30
2019-02-14T07:41:21.450Z,82.00
2019-02-14T07:43:49.809Z,81.80
2019-02-14T07:46:22.799Z,81.70
2019-02-14T07:48:48.661Z,81.60
2019-02-14T07:51:16.996Z,81.40
2019-02-14T07:53:45.583Z,81.30
2019-02-14T07:56:14.166Z,81.30
2019-02-14T07:58:42.497Z,81.30
2019-02-14T08:01:10.990Z,81.20
2019-02-14T08:03:39.499Z,81.10
2019-02-14T08:06:07.880Z,81.00
2019-02-14T08:08:36.196Z,81.30
2019-02-14T08:11:04.534Z,81.30
2019-02-14T08:13:33.083Z,81.90
2019-02-14T08:16:01.426Z,80.80
2019-02-14T08:18:30.007Z,80.50
2019-02-14T08:20:58.331Z,80.30
2019-02-14T08:23:26.799Z,79.90
2019-02-14T08:25:55.136Z,79.40
2019-02-14T08:28:23.621Z,79.30
2019-02-14T08:30:52.376Z,78.80
2019-02-14T08:33:20.680Z,78.50
2019-02-14T08:35:49.268Z,78.20
2019-02-14T08:38:17.586Z,78.10
2019-02-14T08:40:45.925Z,77.50
2019-02-14T08:43:14.253Z,77.50
2019-02-14T08:45:42.862Z,77.50
2019-02-14T08:48:11.352Z,77.10
2019-02-14T08:50:39.660Z,76.70
2019-02-14T08:53:08.052Z,76.50
2019-02-14T08:55:36.794Z,76.80
2019-02-14T08:58:05.386Z,76.80
2019-02-14T09:00:33.703Z,76.80
2019-02-14T09:03:02.475Z,76.80
2019-02-14T09:05:31.226Z,76.40
2019-02-14T09:07:59.722Z,76.30
2019-02-14T09:10:28.546Z,76.10
2019-02-14T09:12:57.035Z,76.00
2019-02-14T09:15:25.442Z,75.90
2019-02-14T09:17:53.951Z,75.70
2019-02-14T09:20:22.603Z,75.20
2019-02-14T09:22:50.922Z,74.90
2019-02-14T09:25:19.291Z,74.40
2019-02-14T09:27:47.890Z,74.40
2019-02-14T09:30:16.354Z,73.50
2019-02-14T09:32:44.922Z,73.00
2019-02-14T09:35:13.413Z,73.20
2019-02-14T09:37:41.900Z,72.50
2019-02-14T09:40:15.886Z,71.60
2019-02-14T09:42:44.217Z,70.30
2019-02-14T09:45:13.817Z,69.70
2019-02-14T09:47:42.156Z,69.40
2019-02-14T09:50:12.099Z,68.80
2019-02-14T09:52:41.316Z,68.30
2019-02-14T09:55:12.437Z,67.90
2019-02-14T09:57:41.317Z,66.80
2019-02-14T10:00:16.993Z,64.60
2019-02-14T10:02:45.304Z,64.90
2019-02-14T10:05:14.476Z,63.90
2019-02-14T10:07:43.078Z,63.90
2019-02-14T10:10:17.151Z,63.80
2019-02-14T10:12:45.435Z,64.00
2019-02-14T10:15:13.926Z,63.40
2019-02-14T10:17:42.326Z,63.40
2019-02-14T10:20:19.936Z,63.10
2019-02-14T10:22:48.383Z,62.50
2019-02-14T10:25:16.702Z,63.20
2019-02-14T10:27:45.018Z,61.80
2019-02-14T10:30:15.941Z,60.50
2019-02-14T10:32:44.357Z,60.10
2019-02-14T10:35:12.667Z,60.80
2019-02-14T10:37:41.064Z,61.10
2019-02-14T10:40:11.623Z,60.30
2019-02-14T10:42:39.948Z,59.50
2019-02-14T10:45:11.361Z,58.40
2019-02-14T10:47:40.119Z,57.60
2019-02-14T10:50:09.973Z,57.60
2019-02-14T10:52:38.314Z,57.30
2019-02-14T10:55:09.498Z,56.30
2019-02-14T10:57:38.387Z,56.10
2019-02-14T11:00:11.840Z,55.40
2019-02-14T11:02:40.443Z,55.10
2019-02-14T11:05:08.831Z,54.30
2019-02-14T11:07:37.439Z,54.00
2019-02-14T11:10:09.161Z,53.10
2019-02-14T11:12:37.544Z,53.20
2019-02-14T11:15:09.316Z,52.80
2019-02-14T11:17:37.773Z,52.60
2019-02-14T11:20:08.742Z,51.30
2019-02-14T11:22:37.315Z,50.00
2019-02-14T11:25:08.946Z,49.40
2019-02-14T11:27:37.278Z,48.80
2019-02-14T11:30:11.238Z,48.30
2019-02-14T11:32:39.544Z,45.30
2019-02-14T11:35:09.771Z,44.90
2019-02-14T11:37:38.583Z,45.70
2019-02-14T11:40:11.885Z,45.40
2019-02-14T11:42:40.459Z,43.60
2019-02-14T11:45:12.097Z,44.90
2019-02-14T11:47:40.410Z,45.60
2019-02-14T11:50:10.788Z,47.30
2019-02-14T11:52:39.103Z,43.60
2019-02-14T11:55:08.877Z,43.10
2019-02-14T11:57:37.273Z,42.40
2019-02-14T12:00:21.863Z,43.10
2019-02-14T12:02:55.615Z,43.20
2019-02-14T12:05:20.428Z,43.70
2019-02-14T12:07:48.832Z,42.40
2019-02-14T12:10:17.419Z,41.30
2019-02-14T12:12:45.775Z,39.40
2019-02-14T12:15:14.618Z,37.90
2019-02-14T12:17:42.945Z,35.90
2019-02-14T12:20:16.229Z,33.80
2019-02-14T12:22:47.092Z,34.00
2019-02-14T12:25:29.832Z,32.10
2019-02-14T12:27:58.164Z,29.60
2019-02-14T12:30:26.570Z,27.60
2019-02-14T12:32:55.169Z,26.30
2019-02-14T12:35:24.157Z,24.40
2019-02-14T12:37:52.822Z,23.10
2019-02-14T12:40:21.406Z,21.50
2019-02-14T12:42:49.913Z,20.00
2019-02-14T12:45:23.583Z,21.00
2019-02-14T12:47:51.701Z,19.50
2019-02-14T12:50:20.089Z,19.20
2019-02-14T12:52:48.408Z,17.50
2019-02-14T12:55:16.735Z,18.40
2019-02-14T12:57:45.054Z,18.80
2019-02-14T13:00:19.028Z,19.40
2019-02-14T13:02:47.357Z,18.90
2019-02-14T13:05:15.674Z,18.90
2019-02-14T13:07:43.993Z,17.00
2019-02-14T13:10:14.576Z,15.90
2019-02-14T13:12:42.948Z,15.90
2019-02-14T13:15:16.795Z,16.70
2019-02-14T13:17:45.338Z,16.40
2019-02-14T13:20:14.176Z,15.70
2019-02-14T13:22:42.497Z,15.90
2019-02-14T13:25:11.859Z,15.00
2019-02-14T13:27:40.205Z,16.40
2019-02-14T13:30:11.640Z,15.40
2019-02-14T13:32:40.041Z,16.60
2019-02-14T13:35:08.389Z,19.70
2019-02-14T13:37:36.776Z,20.20
2019-02-14T13:40:06.158Z,21.00
2019-02-14T13:42:34.473Z,20.80
2019-02-14T13:45:02.879Z,20.50
2019-02-14T13:47:31.270Z,19.90
2019-02-14T13:49:59.868Z,19.80
2019-02-14T13:52:28.183Z,19.90
2019-02-14T13:54:56.806Z,19.80
2019-02-14T13:57:25.223Z,20.70
2019-02-14T13:59:53.872Z,21.20
2019-02-14T14:02:22.353Z,21.40
2019-02-14T14:04:51.131Z,20.70
2019-02-14T14:07:19.613Z,20.20
2019-02-14T14:09:47.945Z,20.40
2019-02-14T14:12:16.256Z,20.20
2019-02-14T14:14:44.586Z,20.70
2019-02-14T14:17:13.245Z,20.80
2019-02-14T14:19:41.728Z,21.00
2019-02-14T14:22:10.105Z,20.40
2019-02-14T14:24:38.441Z,20.10
2019-02-14T14:27:07.341Z,20.20
2019-02-14T14:29:35.815Z,19.90
2019-02-14T14:32:04.160Z,20.00
2019-02-14T14:34:32.814Z,19.50
2019-02-14T14:37:01.406Z,19.80
2019-02-14T14:39:29.724Z,20.80
2019-02-14T14:41:58.066Z,21.50
2019-02-14T14:44:33.723Z,20.90
2019-02-14T14:47:02.055Z,20.40
2019-02-14T14:49:30.545Z,20.10
2019-02-14T14:51:59.140Z,20.00
2019-02-14T14:54:27.461Z,19.30
2019-02-14T14:56:55.855Z,19.50
2019-02-14T14:59:24.177Z,19.30
2019-02-14T15:01:52.673Z,18.90
2019-02-14T15:04:21.017Z,19.30
2019-02-14T15:06:49.625Z,18.60
2019-02-14T15:09:18.112Z,17.70
2019-02-14T15:11:46.447Z,17.60
2019-02-14T15:14:14.761Z,17.20
2019-02-14T15:16:43.375Z,15.90
2019-02-14T15:19:11.957Z,15.40
2019-02-14T15:21:40.733Z,16.40
2019-02-14T15:24:09.135Z,15.80
2019-02-14T15:26:37.523Z,14.50
2019-02-14T15:29:05.855Z,14.40
2019-02-14T15:31:34.190Z,15.70
2019-02-14T15:34:02.508Z,17.90
2019-02-14T15:36:31.105Z,20.10
2019-02-14T15:38:59.430Z,24.30
2019-02-14T15:41:27.750Z,27.20
2019-02-14T15:43:56.339Z,28.90
2019-02-14T15:46:24.810Z,29.90
2019-02-14T15:48:53.137Z,31.90
2019-02-14T15:51:21.650Z,34.30
2019-02-14T15:53:50.040Z,36.30
2019-02-14T15:56:18.389Z,39.60
2019-02-14T15:58:46.796Z,41.90
2019-02-14T16:01:16.516Z,42.90
2019-02-14T16:03:45.602Z,43.70
2019-02-14T16:06:14.221Z,44.10
2019-02-14T16:08:44.549Z,44.50
2019-02-14T16:11:14.306Z,44.80
2019-02-14T16:13:43.190Z,44.90
2019-02-14T16:16:11.685Z,46.00
2019-02-14T16:18:40.036Z,46.40
2019-02-14T16:21:08.628Z,46.80
2019-02-14T16:23:37.128Z,46.60
2019-02-14T16:26:05.443Z,46.70
2019-02-14T16:28:35.587Z,47.30
2019-02-14T16:31:03.822Z,46.40
2019-02-14T16:33:32.224Z,45.80
2019-02-14T16:36:00.971Z,46.50
2019-02-14T16:38:29.737Z,45.80
2019-02-14T16:40:58.049Z,46.20
2019-02-14T16:43:26.455Z,46.60
2019-02-14T16:45:54.780Z,47.60
2019-02-14T16:48:23.378Z,49.70
2019-02-14T16:50:51.699Z,50.40
2019-02-14T16:53:20.028Z,51.60
2019-02-14T16:55:48.354Z,52.20
2019-02-14T16:58:16.958Z,52.40
2019-02-14T17:00:45.276Z,52.60
2019-02-14T17:03:13.680Z,52.70
2019-02-14T17:05:42.168Z,53.70
2019-02-14T17:08:10.497Z,52.80
2019-02-14T17:10:38.884Z,53.00
2019-02-14T17:13:07.383Z,53.10
2019-02-14T17:15:35.775Z,53.90
2019-02-14T17:18:04.117Z,53.80
2019-02-14T17:20:32.710Z,53.90
2019-02-14T17:23:01.388Z,54.00
2019-02-14T17:25:29.778Z,53.90
2019-02-14T17:27:58.117Z,54.80
2019-02-14T17:30:26.528Z,55.00
2019-02-14T17:32:55.229Z,55.00
2019-02-14T17:35:23.606Z,55.20
2019-02-14T17:37:52.295Z,55.30
2019-02-14T17:40:20.692Z,55.40
2019-02-14T17:42:52.615Z,56.10
2019-02-14T17:45:21.534Z,56.60
2019-02-14T17:47:49.925Z,57.00
2019-02-14T17:50:18.733Z,57.00
2019-02-14T17:52:47.097Z,57.60
2019-02-14T17:55:15.696Z,58.20
2019-02-14T17:57:44.198Z,58.50
2019-02-14T18:00:13.035Z,58.50
2019-02-14T18:02:41.814Z,58.50
2019-02-14T18:05:10.404Z,58.30
2019-02-14T18:07:38.794Z,58.40
2019-02-14T18:10:10.479Z,58.50
2019-02-14T18:12:38.887Z,58.60
2019-02-14T18:15:10.270Z,58.80
2019-02-14T18:17:39.238Z,59.50
2019-02-14T18:20:10.017Z,59.90
2019-02-14T18:22:38.891Z,60.10
2019-02-14T18:25:09.888Z,60.60
2019-02-14T18:27:38.481Z,61.00
2019-02-14T18:30:11.320Z,61.60
2019-02-14T18:32:39.674Z,61.80
2019-02-14T18:35:09.926Z,61.80
2019-02-14T18:37:38.521Z,62.10
2019-02-14T18:40:10.696Z,62.50
2019-02-14T18:42:44.434Z,63.00
2019-02-14T18:45:13.759Z,63.40
2019-02-14T18:47:42.174Z,63.80
2019-02-14T18:50:12.185Z,64.10
2019-02-14T18:52:40.607Z,64.40
2019-02-14T18:55:10.334Z,65.50
2019-02-14T18:57:38.779Z,64.90
2019-02-14T19:00:10.937Z,64.80
2019-02-14T19:02:39.359Z,65.00
2019-02-14T19:05:11.109Z,65.40
2019-02-14T19:07:39.457Z,65.40
2019-02-14T19:10:11.016Z,65.30
2019-02-14T19:12:39.699Z,65.20
2019-02-14T19:15:10.430Z,65.30
2019-02-14T19:17:39.065Z,65.30
2019-02-14T19:20:09.603Z,65.10
2019-02-14T19:22:39.063Z,64.70
2019-02-14T19:25:07.532Z,64.40
2019-02-14T19:27:35.861Z,64.40
2019-02-14T19:30:05.761Z,64.50
2019-02-14T19:32:34.187Z,64.80
2019-02-14T19:35:02.603Z,65.30
2019-02-14T19:37:31.233Z,65.50
2019-02-14T19:39:59.566Z,65.80
2019-02-14T19:42:28.087Z,65.70
2019-02-14T19:44:56.600Z,65.90
2019-02-14T19:47:25.177Z,66.40
2019-02-14T19:49:53.526Z,67.10
2019-02-14T19:52:21.889Z,67.40
2019-02-14T19:54:50.258Z,67.90
2019-02-14T19:57:18.657Z,68.20
2019-02-14T19:59:49.097Z,68.30
2019-02-14T20:02:19.143Z,68.10
2019-02-14T20:04:47.755Z,67.80
2019-02-14T20:07:19.234Z,68.00
2019-02-14T20:09:47.593Z,68.10
2019-02-14T20:12:15.940Z,67.90
2019-02-14T20:14:46.546Z,68.30
2019-02-14T20:17:14.875Z,68.50
2019-02-14T20:19:45.149Z,68.50
2019-02-14T20:22:15.117Z,68.30
2019-02-14T20:24:50.892Z,68.30
2019-02-14T20:27:19.302Z,68.10
2019-02-14T20:29:50.807Z,67.90
2019-02-14T20:32:19.708Z,68.00
2019-02-14T20:34:49.345Z,68.40
2019-02-14T20:37:20.992Z,69.10
2019-02-14T20:39:51.177Z,69.30
2019-02-14T20:42:19.694Z,69.80
2019-02-14T20:44:48.090Z,69.80
2019-02-14T20:47:25.291Z,69.90
2019-02-14T20:49:55.259Z,70.00
2019-02-14T20:52:23.606Z,70.00
2019-02-14T20:54:52.098Z,69.60
2019-02-14T20:57:20.639Z,69.70
2019-02-14T20:59:52.665Z,69.80
2019-02-14T21:02:21.067Z,70.00
2019-02-14T21:04:52.264Z,70.00
2019-02-14T21:07:23.723Z,69.90
2019-02-14T21:09:53.672Z,70.10
2019-02-14T21:12:22.029Z,70.10
2019-02-14T21:14:50.363Z,70.20
2019-02-14T21:17:18.699Z,70.20
2019-02-14T21:19:47.041Z,70.30
2019-02-14T21:22:18.614Z,70.40
2019-02-14T21:24:45.674Z,70.50
2019-02-14T21:27:14.108Z,70.80
2019-02-14T21:29:42.438Z,70.90
2019-02-14T21:32:10.895Z,71.10
2019-02-14T21:34:39.498Z,71.10
2019-02-14T21:37:08.093Z,71.00
2019-02-14T21:39:36.482Z,71.20
2019-02-14T21:42:19.773Z,71.40
2019-02-14T21:44:35.438Z,71.40
2019-02-14T21:47:04.093Z,71.20
2019-02-14T21:49:32.490Z,70.90
2019-02-14T21:52:01.166Z,70.60
2019-02-14T21:54:29.577Z,70.30
2019-02-14T21:56:57.912Z,70.20
2019-02-14T21:59:26.322Z,70.20
2019-02-14T22:01:54.870Z,70.00
2019-02-14T22:04:23.801Z,69.80
2019-02-14T22:06:52.125Z,69.90
2019-02-14T22:09:20.801Z,69.80
2019-02-14T22:11:49.196Z,70.20
2019-02-14T22:14:17.535Z,70.50
2019-02-14T22:16:46.012Z,70.80
2019-02-14T22:19:14.509Z,71.10
2019-02-14T22:21:42.901Z,71.50
2019-02-14T22:24:12.544Z,71.80
2019-02-14T22:26:41.091Z,71.90
2019-02-14T22:29:09.514Z,71.90
2019-02-14T22:31:37.910Z,71.90
2019-02-14T22:34:06.230Z,71.90
2019-02-14T22:36:35.010Z,72.10
2019-02-14T22:39:04.595Z,72.10
2019-02-14T22:41:33.250Z,72.40
2019-02-14T22:44:01.580Z,72.20
2019-02-14T22:46:30.084Z,72.30
2019-02-14T22:48:58.388Z,72.20
2019-02-14T22:51:26.908Z,72.20
2019-02-14T22:53:55.479Z,72.00
2019-02-14T22:56:23.989Z,72.30
2019-02-14T22:58:52.300Z,72.40
2019-02-14T23:01:21.012Z,72.60
2019-02-14T23:03:49.593Z,72.70
2019-02-14T23:06:17.925Z,72.60
2019-02-14T23:08:46.399Z,72.40
2019-02-14T23:11:14.974Z,72.80
2019-02-14T23:13:43.534Z,74.00
2019-02-14T23:16:11.856Z,73.60
2019-02-14T23:18:40.165Z,73.90
2019-02-14T23:21:08.741Z,74.20
2019-02-14T23:23:37.329Z,74.20
2019-02-14T23:26:05.817Z,74.30
2019-02-14T23:28:34.427Z,74.50
2019-02-14T23:31:02.728Z,74.90
2019-02-14T23:33:31.490Z,75.10
2019-02-14T23:35:59.865Z,75.00
2019-02-14T23:38:28.264Z,75.20
2019-02-14T23:40:56.565Z,75.20
2019-02-14T23:43:24.901Z,75.20
2019-02-14T23:45:53.201Z,75.40
2019-02-14T23:48:22.055Z,75.30
2019-02-14T23:50:50.362Z,75.40
2019-02-14T23:53:18.685Z,75.50
2019-02-14T23:55:47.299Z,75.40
2019-02-14T23:58:15.871Z,75.50
